Time;durP1;ratioP1;P1;durP2;ratioP2;P2;SDS_P1;SDS_P2;PMS_P1;PMS_P2;Temp;Humidity;BMP_temperature;BMP_pressure;BME280_temperature;BME280_humidity;BME280_pressure;Samples;Min_cycle;Max_cycle;Signal;HPM_P1;HPM_P2
2020/12/26 00:00:46;;;;;;;1.9;1.7;;;;;;;0.19;92.31348;95652.19;;;;
2020/12/26 00:01:47;;;;;;;1.9;1.7;;;;;;;0.19;92.31348;95652.19;;;;
2020/12/26 00:02:47;;;;;;;1.9;1.7;;;;;;;0.19;92.31348;95652.19;;;;
2020/12/26 00:03:48;;;;;;;1.9;1.7;;;;;;;0.19;92.31348;95652.19;;;;
2020/12/26 00:04:49;;;;;;;1.9;1.7;;;;;;;0.19;92.31348;95652.19;;;;
2020/12/26 00:05:50;;;;;;;1.9;1.7;;;;;;;0.19;92.31348;95652.19;;;;
2020/12/26 00:06:50;;;;;;;1.85;1.7;;;;;;;0.17;92.11426;95648.38;;;;
2020/12/26 00:07:51;;;;;;;1.85;1.7;;;;;;;0.17;92.11426;95648.38;;;;
2020/12/26 00:08:53;;;;;;;1.85;1.7;;;;;;;0.17;92.11426;95648.38;;;;
2020/12/26 00:09:53;;;;;;;1.85;1.7;;;;;;;0.17;92.11426;95648.38;;;;
2020/12/26 00:10:54;;;;;;;1.85;1.7;;;;;;;0.17;92.11426;95648.38;;;;
2020/12/26 00:11:54;;;;;;;1.85;1.7;;;;;;;0.17;92.11426;95648.38;;;;
2020/12/26 00:12:55;;;;;;;1.85;1.7;;;;;;;0.17;92.11426;95648.38;;;;
2020/12/26 00:13:55;;;;;;;1.85;1.7;;;;;;;0.17;92.11426;95648.38;;;;
2020/12/26 00:14:56;;;;;;;1.85;1.7;;;;;;;0.17;92.11426;95648.38;;;;
2020/12/26 00:15:56;;;;;;;1.85;1.7;;;;;;;0.17;92.11426;95648.38;;;;
2020/12/26 00:16:57;;;;;;;1.85;1.7;;;;;;;0.17;92.11426;95648.38;;;;
2020/12/26 00:17:58;;;;;;;2;1.8;;;;;;;0.14;92.00195;95658.48;;;;
2020/12/26 00:18:58;;;;;;;2;1.8;;;;;;;0.14;92.00195;95658.48;;;;
2020/12/26 00:19:59;;;;;;;2;1.8;;;;;;;0.14;92.00195;95658.48;;;;
2020/12/26 00:20:59;;;;;;;2;1.8;;;;;;;0.14;92.00195;95658.48;;;;
2020/12/26 00:22:01;;;;;;;2;1.8;;;;;;;0.14;92.00195;95658.48;;;;
2020/12/26 00:23:02;;;;;;;2;1.8;;;;;;;0.14;92.00195;95658.48;;;;
2020/12/26 00:24:02;;;;;;;2;1.8;;;;;;;0.14;92.00195;95658.48;;;;
2020/12/26 00:25:03;;;;;;;2;1.8;;;;;;;0.14;92.00195;95658.48;;;;
2020/12/26 00:26:03;;;;;;;2;1.8;;;;;;;0.14;92.00195;95658.48;;;;
2020/12/26 00:27:04;;;;;;;2;1.8;;;;;;;0.14;92.00195;95658.48;;;;
2020/12/26 00:28:05;;;;;;;2.5;1.9;;;;;;;0.13;91.79297;95668.78;;;;
2020/12/26 00:29:05;;;;;;;2.5;1.9;;;;;;;0.13;91.79297;95668.78;;;;
2020/12/26 00:30:06;;;;;;;2.5;1.9;;;;;;;0.13;91.79297;95668.78;;;;
2020/12/26 00:31:07;;;;;;;2.5;1.9;;;;;;;0.13;91.79297;95668.78;;;;
2020/12/26 00:32:11;;;;;;;2.5;1.9;;;;;;;0.13;91.79297;95668.78;;;;
2020/12/26 00:33:12;;;;;;;2.5;1.9;;;;;;;0.13;91.79297;95668.78;;;;
2020/12/26 00:34:12;;;;;;;2.5;1.9;;;;;;;0.13;91.79297;95668.78;;;;
2020/12/26 00:35:13;;;;;;;2.5;1.9;;;;;;;0.13;91.79297;95668.78;;;;
2020/12/26 00:36:13;;;;;;;2.5;1.9;;;;;;;0.13;91.79297;95668.78;;;;
2020/12/26 00:37:14;;;;;;;2.5;1.9;;;;;;;0.13;91.79297;95668.78;;;;
2020/12/26 00:38:16;;;;;;;2.5;1.9;;;;;;;0.13;91.79297;95668.78;;;;
2020/12/26 00:39:16;;;;;;;2.1;1.85;;;;;;;0.12;91.64746;95657.75;;;;
2020/12/26 00:40:17;;;;;;;2.1;1.85;;;;;;;0.12;91.64746;95657.75;;;;
2020/12/26 00:41:17;;;;;;;2.1;1.85;;;;;;;0.12;91.64746;95657.75;;;;
2020/12/26 00:42:18;;;;;;;2.1;1.85;;;;;;;0.12;91.64746;95657.75;;;;
2020/12/26 00:43:18;;;;;;;2.1;1.85;;;;;;;0.12;91.64746;95657.75;;;;
2020/12/26 00:44:19;;;;;;;2.1;1.85;;;;;;;0.12;91.64746;95657.75;;;;
2020/12/26 00:45:19;;;;;;;2.1;1.85;;;;;;;0.12;91.64746;95657.75;;;;
2020/12/26 00:46:20;;;;;;;2.1;1.85;;;;;;;0.12;91.64746;95657.75;;;;
2020/12/26 00:47:21;;;;;;;2.1;1.85;;;;;;;0.12;91.64746;95657.75;;;;
2020/12/26 00:48:22;;;;;;;2.1;1.85;;;;;;;0.12;91.64746;95657.75;;;;
2020/12/26 00:49:23;;;;;;;2.8;2.299999;;;;;;;0.13;91.52441;95659.39;;;;
2020/12/26 00:50:23;;;;;;;2.8;2.299999;;;;;;;0.13;91.52441;95659.39;;;;
2020/12/26 00:51:24;;;;;;;2.8;2.299999;;;;;;;0.13;91.52441;95659.39;;;;
2020/12/26 00:52:24;;;;;;;2.8;2.299999;;;;;;;0.13;91.52441;95659.39;;;;
2020/12/26 00:53:25;;;;;;;2.8;2.299999;;;;;;;0.13;91.52441;95659.39;;;;
2020/12/26 00:54:25;;;;;;;2.8;2.299999;;;;;;;0.13;91.52441;95659.39;;;;
2020/12/26 00:55:26;;;;;;;2.8;2.299999;;;;;;;0.13;91.52441;95659.39;;;;
2020/12/26 00:56:26;;;;;;;2.8;2.299999;;;;;;;0.13;91.52441;95659.39;;;;
2020/12/26 00:57:27;;;;;;;2.8;2.299999;;;;;;;0.13;91.52441;95659.39;;;;
2020/12/26 00:58:27;;;;;;;2.8;2.299999;;;;;;;0.13;91.52441;95659.39;;;;
2020/12/26 00:59:27;;;;;;;2.8;2.299999;;;;;;;0.13;91.52441;95659.39;;;;
2020/12/26 01:00:28;;;;;;;4.1;2.85;;;;;;;0.14;91.38965;95693;;;;
2020/12/26 01:01:28;;;;;;;4.1;2.85;;;;;;;0.14;91.38965;95693;;;;
2020/12/26 01:02:29;;;;;;;4.1;2.85;;;;;;;0.14;91.38965;95693;;;;
2020/12/26 01:03:29;;;;;;;4.1;2.85;;;;;;;0.14;91.38965;95693;;;;
2020/12/26 01:04:30;;;;;;;4.1;2.85;;;;;;;0.14;91.38965;95693;;;;
2020/12/26 01:05:30;;;;;;;4.1;2.85;;;;;;;0.14;91.38965;95693;;;;
2020/12/26 01:06:31;;;;;;;4.1;2.85;;;;;;;0.14;91.38965;95693;;;;
2020/12/26 01:07:31;;;;;;;4.1;2.85;;;;;;;0.14;91.38965;95693;;;;
2020/12/26 01:08:31;;;;;;;4.1;2.85;;;;;;;0.14;91.38965;95693;;;;
2020/12/26 01:09:32;;;;;;;4.1;2.85;;;;;;;0.14;91.38965;95693;;;;
2020/12/26 01:10:32;;;;;;;4.1;2.85;;;;;;;0.14;91.38965;95693;;;;
2020/12/26 01:11:33;;;;;;;4.5;3.05;;;;;;;0.2;91.25781;95702.45;;;;
2020/12/26 01:12:33;;;;;;;4.5;3.05;;;;;;;0.2;91.25781;95702.45;;;;
2020/12/26 01:13:34;;;;;;;4.5;3.05;;;;;;;0.2;91.25781;95702.45;;;;
2020/12/26 01:14:35;;;;;;;4.5;3.05;;;;;;;0.2;91.25781;95702.45;;;;
2020/12/26 01:15:35;;;;;;;4.5;3.05;;;;;;;0.2;91.25781;95702.45;;;;
2020/12/26 01:16:35;;;;;;;4.5;3.05;;;;;;;0.2;91.25781;95702.45;;;;
2020/12/26 01:17:36;;;;;;;4.5;3.05;;;;;;;0.2;91.25781;95702.45;;;;
2020/12/26 01:18:37;;;;;;;4.5;3.05;;;;;;;0.2;91.25781;95702.45;;;;
2020/12/26 01:19:37;;;;;;;4.5;3.05;;;;;;;0.2;91.25781;95702.45;;;;
2020/12/26 01:20:38;;;;;;;4.5;3.05;;;;;;;0.2;91.25781;95702.45;;;;
2020/12/26 01:21:38;;;;;;;4.05;3.3;;;;;;;0.17;91.06543;95710.33;;;;
2020/12/26 01:22:39;;;;;;;4.05;3.3;;;;;;;0.17;91.06543;95710.33;;;;
2020/12/26 01:23:39;;;;;;;4.05;3.3;;;;;;;0.17;91.06543;95710.33;;;;
2020/12/26 01:24:41;;;;;;;4.05;3.3;;;;;;;0.17;91.06543;95710.33;;;;
2020/12/26 01:25:41;;;;;;;4.05;3.3;;;;;;;0.17;91.06543;95710.33;;;;
2020/12/26 01:26:42;;;;;;;4.05;3.3;;;;;;;0.17;91.06543;95710.33;;;;
2020/12/26 01:27:45;;;;;;;4.05;3.3;;;;;;;0.17;91.06543;95710.33;;;;
2020/12/26 01:28:46;;;;;;;4.05;3.3;;;;;;;0.17;91.06543;95710.33;;;;
2020/12/26 01:29:46;;;;;;;4.05;3.3;;;;;;;0.17;91.06543;95710.33;;;;
2020/12/26 01:30:48;;;;;;;4.05;3.3;;;;;;;0.17;91.06543;95710.33;;;;
2020/12/26 01:31:48;;;;;;;4.05;3.3;;;;;;;0.17;91.06543;95710.33;;;;
2020/12/26 01:32:50;;;;;;;3.35;2.65;;;;;;;0.13;91.13965;95704.52;;;;
2020/12/26 01:33:51;;;;;;;3.35;2.65;;;;;;;0.13;91.13965;95704.52;;;;
2020/12/26 01:34:52;;;;;;;3.35;2.65;;;;;;;0.13;91.13965;95704.52;;;;
2020/12/26 01:35:52;;;;;;;3.35;2.65;;;;;;;0.13;91.13965;95704.52;;;;
2020/12/26 01:36:53;;;;;;;3.35;2.65;;;;;;;0.13;91.13965;95704.52;;;;
2020/12/26 01:37:53;;;;;;;3.35;2.65;;;;;;;0.13;91.13965;95704.52;;;;
2020/12/26 01:38:55;;;;;;;3.35;2.65;;;;;;;0.13;91.13965;95704.52;;;;
2020/12/26 01:39:55;;;;;;;3.35;2.65;;;;;;;0.13;91.13965;95704.52;;;;
2020/12/26 01:40:55;;;;;;;3.35;2.65;;;;;;;0.13;91.13965;95704.52;;;;
2020/12/26 01:41:56;;;;;;;3.35;2.65;;;;;;;0.13;91.13965;95704.52;;;;
2020/12/26 01:42:57;;;;;;;3.2;2.65;;;;;;;0.17;90.97949;95703.28;;;;
2020/12/26 01:43:57;;;;;;;3.2;2.65;;;;;;;0.17;90.97949;95703.28;;;;
2020/12/26 01:44:59;;;;;;;3.2;2.65;;;;;;;0.17;90.97949;95703.28;;;;
2020/12/26 01:46:00;;;;;;;3.2;2.65;;;;;;;0.17;90.97949;95703.28;;;;
2020/12/26 01:47:00;;;;;;;3.2;2.65;;;;;;;0.17;90.97949;95703.28;;;;
2020/12/26 01:48:01;;;;;;;3.2;2.65;;;;;;;0.17;90.97949;95703.28;;;;
2020/12/26 01:49:03;;;;;;;3.2;2.65;;;;;;;0.17;90.97949;95703.28;;;;
2020/12/26 01:50:03;;;;;;;3.2;2.65;;;;;;;0.17;90.97949;95703.28;;;;
2020/12/26 01:51:04;;;;;;;3.2;2.65;;;;;;;0.17;90.97949;95703.28;;;;
2020/12/26 01:52:05;;;;;;;3.2;2.65;;;;;;;0.17;90.97949;95703.28;;;;
2020/12/26 01:53:08;;;;;;;3.2;2.65;;;;;;;0.17;90.97949;95703.28;;;;
2020/12/26 01:54:10;;;;;;;3.05;2.5;;;;;;;0.11;90.73926;95691.91;;;;
2020/12/26 01:55:11;;;;;;;3.05;2.5;;;;;;;0.11;90.73926;95691.91;;;;
2020/12/26 01:56:12;;;;;;;3.05;2.5;;;;;;;0.11;90.73926;95691.91;;;;
2020/12/26 01:57:12;;;;;;;3.05;2.5;;;;;;;0.11;90.73926;95691.91;;;;
2020/12/26 01:58:13;;;;;;;3.05;2.5;;;;;;;0.11;90.73926;95691.91;;;;
2020/12/26 01:59:15;;;;;;;3.05;2.5;;;;;;;0.11;90.73926;95691.91;;;;
2020/12/26 02:00:15;;;;;;;3.05;2.5;;;;;;;0.11;90.73926;95691.91;;;;
2020/12/26 02:01:16;;;;;;;3.05;2.5;;;;;;;0.11;90.73926;95691.91;;;;
2020/12/26 02:02:16;;;;;;;3.05;2.5;;;;;;;0.11;90.73926;95691.91;;;;
2020/12/26 02:03:17;;;;;;;3.05;2.5;;;;;;;0.11;90.73926;95691.91;;;;
2020/12/26 02:04:17;;;;;;;3.25;2.5;;;;;;;-0.02;90.48438;95699.49;;;;
2020/12/26 02:05:18;;;;;;;3.25;2.5;;;;;;;-0.02;90.48438;95699.49;;;;
2020/12/26 02:06:18;;;;;;;3.25;2.5;;;;;;;-0.02;90.48438;95699.49;;;;
2020/12/26 02:07:19;;;;;;;3.25;2.5;;;;;;;-0.02;90.48438;95699.49;;;;
2020/12/26 02:08:19;;;;;;;3.25;2.5;;;;;;;-0.02;90.48438;95699.49;;;;
2020/12/26 02:09:20;;;;;;;3.25;2.5;;;;;;;-0.02;90.48438;95699.49;;;;
2020/12/26 02:10:23;;;;;;;3.25;2.5;;;;;;;-0.02;90.48438;95699.49;;;;
2020/12/26 02:11:24;;;;;;;3.25;2.5;;;;;;;-0.02;90.48438;95699.49;;;;
2020/12/26 02:12:25;;;;;;;3.25;2.5;;;;;;;-0.02;90.48438;95699.49;;;;
2020/12/26 02:13:26;;;;;;;3.25;2.5;;;;;;;-0.02;90.48438;95699.49;;;;
2020/12/26 02:14:27;;;;;;;3.25;2.5;;;;;;;-0.02;90.48438;95699.49;;;;
2020/12/26 02:15:27;;;;;;;3.2;2.5;;;;;;;-0.3;90.07227;95706.45;;;;
2020/12/26 02:16:28;;;;;;;3.2;2.5;;;;;;;-0.3;90.07227;95706.45;;;;
2020/12/26 02:17:28;;;;;;;3.2;2.5;;;;;;;-0.3;90.07227;95706.45;;;;
2020/12/26 02:18:29;;;;;;;3.2;2.5;;;;;;;-0.3;90.07227;95706.45;;;;
2020/12/26 02:19:30;;;;;;;3.2;2.5;;;;;;;-0.3;90.07227;95706.45;;;;
2020/12/26 02:20:30;;;;;;;3.2;2.5;;;;;;;-0.3;90.07227;95706.45;;;;
2020/12/26 02:21:31;;;;;;;3.2;2.5;;;;;;;-0.3;90.07227;95706.45;;;;
2020/12/26 02:22:31;;;;;;;3.2;2.5;;;;;;;-0.3;90.07227;95706.45;;;;
2020/12/26 02:23:32;;;;;;;3.2;2.5;;;;;;;-0.3;90.07227;95706.45;;;;
2020/12/26 02:24:33;;;;;;;3.2;2.5;;;;;;;-0.3;90.07227;95706.45;;;;
2020/12/26 02:25:33;;;;;;;4.75;3.05;;;;;;;-0.54;90.09473;95701.45;;;;
2020/12/26 02:26:34;;;;;;;4.75;3.05;;;;;;;-0.54;90.09473;95701.45;;;;
2020/12/26 02:27:34;;;;;;;4.75;3.05;;;;;;;-0.54;90.09473;95701.45;;;;
2020/12/26 02:28:35;;;;;;;4.75;3.05;;;;;;;-0.54;90.09473;95701.45;;;;
2020/12/26 02:29:35;;;;;;;4.75;3.05;;;;;;;-0.54;90.09473;95701.45;;;;
2020/12/26 02:30:38;;;;;;;4.75;3.05;;;;;;;-0.54;90.09473;95701.45;;;;
2020/12/26 02:31:39;;;;;;;4.75;3.05;;;;;;;-0.54;90.09473;95701.45;;;;
2020/12/26 02:32:39;;;;;;;4.75;3.05;;;;;;;-0.54;90.09473;95701.45;;;;
2020/12/26 02:33:40;;;;;;;4.75;3.05;;;;;;;-0.54;90.09473;95701.45;;;;
2020/12/26 02:34:40;;;;;;;4.75;3.05;;;;;;;-0.54;90.09473;95701.45;;;;
2020/12/26 02:35:41;;;;;;;4.75;3.05;;;;;;;-0.54;90.09473;95701.45;;;;
2020/12/26 02:36:44;;;;;;;4.8;3.25;;;;;;;-0.84;89.97754;95709.96;;;;
2020/12/26 02:37:45;;;;;;;4.8;3.25;;;;;;;-0.84;89.97754;95709.96;;;;
2020/12/26 02:38:45;;;;;;;4.8;3.25;;;;;;;-0.84;89.97754;95709.96;;;;
2020/12/26 02:39:46;;;;;;;4.8;3.25;;;;;;;-0.84;89.97754;95709.96;;;;
2020/12/26 02:40:46;;;;;;;4.8;3.25;;;;;;;-0.84;89.97754;95709.96;;;;
2020/12/26 02:41:47;;;;;;;4.8;3.25;;;;;;;-0.84;89.97754;95709.96;;;;
2020/12/26 02:42:48;;;;;;;4.8;3.25;;;;;;;-0.84;89.97754;95709.96;;;;
2020/12/26 02:43:48;;;;;;;4.8;3.25;;;;;;;-0.84;89.97754;95709.96;;;;
2020/12/26 02:44:49;;;;;;;4.8;3.25;;;;;;;-0.84;89.97754;95709.96;;;;
2020/12/26 02:45:49;;;;;;;4.8;3.25;;;;;;;-0.84;89.97754;95709.96;;;;
2020/12/26 02:46:51;;;;;;;5.349999;3.7;;;;;;;-1.14;90.29883;95718.73;;;;
2020/12/26 02:47:52;;;;;;;5.349999;3.7;;;;;;;-1.14;90.29883;95718.73;;;;
2020/12/26 02:48:52;;;;;;;5.349999;3.7;;;;;;;-1.14;90.29883;95718.73;;;;
2020/12/26 02:49:53;;;;;;;5.349999;3.7;;;;;;;-1.14;90.29883;95718.73;;;;
2020/12/26 02:50:53;;;;;;;5.349999;3.7;;;;;;;-1.14;90.29883;95718.73;;;;
2020/12/26 02:51:54;;;;;;;5.349999;3.7;;;;;;;-1.14;90.29883;95718.73;;;;
2020/12/26 02:52:54;;;;;;;5.349999;3.7;;;;;;;-1.14;90.29883;95718.73;;;;
2020/12/26 02:53:55;;;;;;;5.349999;3.7;;;;;;;-1.14;90.29883;95718.73;;;;
2020/12/26 02:54:55;;;;;;;5.349999;3.7;;;;;;;-1.14;90.29883;95718.73;;;;
2020/12/26 02:55:56;;;;;;;5.349999;3.7;;;;;;;-1.14;90.29883;95718.73;;;;
2020/12/26 02:56:56;;;;;;;5.349999;3.7;;;;;;;-1.14;90.29883;95718.73;;;;
2020/12/26 02:57:56;;;;;;;5.7;3.65;;;;;;;-1.3;90.54492;95735.82;;;;
2020/12/26 02:58:57;;;;;;;5.7;3.65;;;;;;;-1.3;90.54492;95735.82;;;;
2020/12/26 02:59:58;;;;;;;5.7;3.65;;;;;;;-1.3;90.54492;95735.82;;;;
2020/12/26 03:00:58;;;;;;;5.7;3.65;;;;;;;-1.3;90.54492;95735.82;;;;
2020/12/26 03:01:59;;;;;;;5.7;3.65;;;;;;;-1.3;90.54492;95735.82;;;;
2020/12/26 03:02:59;;;;;;;5.7;3.65;;;;;;;-1.3;90.54492;95735.82;;;;
2020/12/26 03:04:00;;;;;;;5.7;3.65;;;;;;;-1.3;90.54492;95735.82;;;;
2020/12/26 03:05:00;;;;;;;5.7;3.65;;;;;;;-1.3;90.54492;95735.82;;;;
2020/12/26 03:06:00;;;;;;;5.7;3.65;;;;;;;-1.3;90.54492;95735.82;;;;
2020/12/26 03:07:01;;;;;;;5.7;3.65;;;;;;;-1.3;90.54492;95735.82;;;;
2020/12/26 03:08:02;;;;;;;5.7;3.65;;;;;;;-1.3;90.54492;95735.82;;;;
2020/12/26 03:09:03;;;;;;;5.900001;4;;;;;;;-1.35;90.82422;95743.36;;;;
2020/12/26 03:10:03;;;;;;;5.900001;4;;;;;;;-1.35;90.82422;95743.36;;;;
2020/12/26 03:11:04;;;;;;;5.900001;4;;;;;;;-1.35;90.82422;95743.36;;;;
2020/12/26 03:12:05;;;;;;;5.900001;4;;;;;;;-1.35;90.82422;95743.36;;;;
2020/12/26 03:13:05;;;;;;;5.900001;4;;;;;;;-1.35;90.82422;95743.36;;;;
2020/12/26 03:14:06;;;;;;;5.900001;4;;;;;;;-1.35;90.82422;95743.36;;;;
2020/12/26 03:15:06;;;;;;;5.900001;4;;;;;;;-1.35;90.82422;95743.36;;;;
2020/12/26 03:16:07;;;;;;;5.900001;4;;;;;;;-1.35;90.82422;95743.36;;;;
2020/12/26 03:17:07;;;;;;;5.900001;4;;;;;;;-1.35;90.82422;95743.36;;;;
2020/12/26 03:18:08;;;;;;;5.900001;4;;;;;;;-1.35;90.82422;95743.36;;;;
2020/12/26 03:19:08;;;;;;;6.7;4.150001;;;;;;;-1.49;90.55664;95749.68;;;;
2020/12/26 03:20:09;;;;;;;6.7;4.150001;;;;;;;-1.49;90.55664;95749.68;;;;
2020/12/26 03:21:09;;;;;;;6.7;4.150001;;;;;;;-1.49;90.55664;95749.68;;;;
2020/12/26 03:22:10;;;;;;;6.7;4.150001;;;;;;;-1.49;90.55664;95749.68;;;;
2020/12/26 03:23:10;;;;;;;6.7;4.150001;;;;;;;-1.49;90.55664;95749.68;;;;
2020/12/26 03:24:11;;;;;;;6.7;4.150001;;;;;;;-1.49;90.55664;95749.68;;;;
2020/12/26 03:25:11;;;;;;;6.7;4.150001;;;;;;;-1.49;90.55664;95749.68;;;;
2020/12/26 03:26:12;;;;;;;6.7;4.150001;;;;;;;-1.49;90.55664;95749.68;;;;
2020/12/26 03:27:12;;;;;;;6.7;4.150001;;;;;;;-1.49;90.55664;95749.68;;;;
2020/12/26 03:28:13;;;;;;;6.7;4.150001;;;;;;;-1.49;90.55664;95749.68;;;;
2020/12/26 03:29:13;;;;;;;6.7;4.150001;;;;;;;-1.49;90.55664;95749.68;;;;
2020/12/26 03:30:14;;;;;;;6.9;4.15;;;;;;;-1.61;90.41602;95753.55;;;;
2020/12/26 03:31:14;;;;;;;6.9;4.15;;;;;;;-1.61;90.41602;95753.55;;;;
2020/12/26 03:32:15;;;;;;;6.9;4.15;;;;;;;-1.61;90.41602;95753.55;;;;
2020/12/26 03:33:15;;;;;;;6.9;4.15;;;;;;;-1.61;90.41602;95753.55;;;;
2020/12/26 03:34:16;;;;;;;6.9;4.15;;;;;;;-1.61;90.41602;95753.55;;;;
2020/12/26 03:35:16;;;;;;;6.9;4.15;;;;;;;-1.61;90.41602;95753.55;;;;
2020/12/26 03:36:17;;;;;;;6.9;4.15;;;;;;;-1.61;90.41602;95753.55;;;;
2020/12/26 03:37:17;;;;;;;6.9;4.15;;;;;;;-1.61;90.41602;95753.55;;;;
2020/12/26 03:38:18;;;;;;;6.9;4.15;;;;;;;-1.61;90.41602;95753.55;;;;
2020/12/26 03:39:18;;;;;;;6.9;4.15;;;;;;;-1.61;90.41602;95753.55;;;;
2020/12/26 03:40:19;;;;;;;7.849999;5;;;;;;;-1.84;90.50293;95765.48;;;;
2020/12/26 03:41:20;;;;;;;7.849999;5;;;;;;;-1.84;90.50293;95765.48;;;;
2020/12/26 03:42:20;;;;;;;7.849999;5;;;;;;;-1.84;90.50293;95765.48;;;;
2020/12/26 03:43:21;;;;;;;7.849999;5;;;;;;;-1.84;90.50293;95765.48;;;;
2020/12/26 03:44:21;;;;;;;7.849999;5;;;;;;;-1.84;90.50293;95765.48;;;;
2020/12/26 03:45:22;;;;;;;7.849999;5;;;;;;;-1.84;90.50293;95765.48;;;;
2020/12/26 03:46:22;;;;;;;7.849999;5;;;;;;;-1.84;90.50293;95765.48;;;;
2020/12/26 03:47:23;;;;;;;7.849999;5;;;;;;;-1.84;90.50293;95765.48;;;;
2020/12/26 03:48:23;;;;;;;7.849999;5;;;;;;;-1.84;90.50293;95765.48;;;;
2020/12/26 03:49:24;;;;;;;7.849999;5;;;;;;;-1.84;90.50293;95765.48;;;;
2020/12/26 03:50:24;;;;;;;7.849999;5;;;;;;;-1.84;90.50293;95765.48;;;;
2020/12/26 03:51:25;;;;;;;10.15;4.849999;;;;;;;-2.02;90.50391;95777;;;;
2020/12/26 03:52:25;;;;;;;10.15;4.849999;;;;;;;-2.02;90.50391;95777;;;;
2020/12/26 03:53:26;;;;;;;10.15;4.849999;;;;;;;-2.02;90.50391;95777;;;;
2020/12/26 03:54:26;;;;;;;10.15;4.849999;;;;;;;-2.02;90.50391;95777;;;;
2020/12/26 03:55:27;;;;;;;10.15;4.849999;;;;;;;-2.02;90.50391;95777;;;;
2020/12/26 03:56:27;;;;;;;10.15;4.849999;;;;;;;-2.02;90.50391;95777;;;;
2020/12/26 03:57:28;;;;;;;10.15;4.849999;;;;;;;-2.02;90.50391;95777;;;;
2020/12/26 03:58:28;;;;;;;10.15;4.849999;;;;;;;-2.02;90.50391;95777;;;;
2020/12/26 03:59:28;;;;;;;10.15;4.849999;;;;;;;-2.02;90.50391;95777;;;;
2020/12/26 04:00:29;;;;;;;10.15;4.849999;;;;;;;-2.02;90.50391;95777;;;;
2020/12/26 04:01:29;;;;;;;10.15;4.849999;;;;;;;-2.02;90.50391;95777;;;;
2020/12/26 04:02:30;;;;;;;8.299999;5.249999;;;;;;;-2.2;90.57129;95781.34;;;;
2020/12/26 04:03:31;;;;;;;8.299999;5.249999;;;;;;;-2.2;90.57129;95781.34;;;;
2020/12/26 04:04:33;;;;;;;8.299999;5.249999;;;;;;;-2.2;90.57129;95781.34;;;;
2020/12/26 04:05:33;;;;;;;8.299999;5.249999;;;;;;;-2.2;90.57129;95781.34;;;;
2020/12/26 04:06:34;;;;;;;8.299999;5.249999;;;;;;;-2.2;90.57129;95781.34;;;;
2020/12/26 04:07:34;;;;;;;8.299999;5.249999;;;;;;;-2.2;90.57129;95781.34;;;;
2020/12/26 04:08:34;;;;;;;8.299999;5.249999;;;;;;;-2.2;90.57129;95781.34;;;;
2020/12/26 04:09:35;;;;;;;8.299999;5.249999;;;;;;;-2.2;90.57129;95781.34;;;;
2020/12/26 04:10:35;;;;;;;8.299999;5.249999;;;;;;;-2.2;90.57129;95781.34;;;;
2020/12/26 04:11:36;;;;;;;8.299999;5.249999;;;;;;;-2.2;90.57129;95781.34;;;;
2020/12/26 04:12:37;;;;;;;9.950001;6.4;;;;;;;-2.28;90.5332;95778.16;;;;
2020/12/26 04:13:37;;;;;;;9.950001;6.4;;;;;;;-2.28;90.5332;95778.16;;;;
2020/12/26 04:14:38;;;;;;;9.950001;6.4;;;;;;;-2.28;90.5332;95778.16;;;;
2020/12/26 04:15:38;;;;;;;9.950001;6.4;;;;;;;-2.28;90.5332;95778.16;;;;
2020/12/26 04:16:39;;;;;;;9.950001;6.4;;;;;;;-2.28;90.5332;95778.16;;;;
2020/12/26 04:17:39;;;;;;;9.950001;6.4;;;;;;;-2.28;90.5332;95778.16;;;;
2020/12/26 04:18:40;;;;;;;9.950001;6.4;;;;;;;-2.28;90.5332;95778.16;;;;
2020/12/26 04:19:40;;;;;;;9.950001;6.4;;;;;;;-2.28;90.5332;95778.16;;;;
2020/12/26 04:20:41;;;;;;;9.950001;6.4;;;;;;;-2.28;90.5332;95778.16;;;;
2020/12/26 04:21:41;;;;;;;9.950001;6.4;;;;;;;-2.28;90.5332;95778.16;;;;
2020/12/26 04:22:42;;;;;;;9.950001;6.4;;;;;;;-2.28;90.5332;95778.16;;;;
2020/12/26 04:23:42;;;;;;;9.25;5.749999;;;;;;;-2.38;90.46094;95790.61;;;;
2020/12/26 04:24:43;;;;;;;9.25;5.749999;;;;;;;-2.38;90.46094;95790.61;;;;
2020/12/26 04:25:44;;;;;;;9.25;5.749999;;;;;;;-2.38;90.46094;95790.61;;;;
2020/12/26 04:26:45;;;;;;;9.25;5.749999;;;;;;;-2.38;90.46094;95790.61;;;;
2020/12/26 04:27:46;;;;;;;9.25;5.749999;;;;;;;-2.38;90.46094;95790.61;;;;
2020/12/26 04:28:47;;;;;;;9.25;5.749999;;;;;;;-2.38;90.46094;95790.61;;;;
2020/12/26 04:29:48;;;;;;;9.25;5.749999;;;;;;;-2.38;90.46094;95790.61;;;;
2020/12/26 04:30:48;;;;;;;9.25;5.749999;;;;;;;-2.38;90.46094;95790.61;;;;
2020/12/26 04:31:49;;;;;;;9.25;5.749999;;;;;;;-2.38;90.46094;95790.61;;;;
2020/12/26 04:32:50;;;;;;;9.25;5.749999;;;;;;;-2.38;90.46094;95790.61;;;;
2020/12/26 04:33:51;;;;;;;9.15;5.700001;;;;;;;-2.47;90.49219;95798.99;;;;
2020/12/26 04:34:51;;;;;;;9.15;5.700001;;;;;;;-2.47;90.49219;95798.99;;;;
2020/12/26 04:35:52;;;;;;;9.15;5.700001;;;;;;;-2.47;90.49219;95798.99;;;;
2020/12/26 04:36:52;;;;;;;9.15;5.700001;;;;;;;-2.47;90.49219;95798.99;;;;
2020/12/26 04:37:53;;;;;;;9.15;5.700001;;;;;;;-2.47;90.49219;95798.99;;;;
2020/12/26 04:38:53;;;;;;;9.15;5.700001;;;;;;;-2.47;90.49219;95798.99;;;;
2020/12/26 04:39:54;;;;;;;9.15;5.700001;;;;;;;-2.47;90.49219;95798.99;;;;
2020/12/26 04:40:54;;;;;;;9.15;5.700001;;;;;;;-2.47;90.49219;95798.99;;;;
2020/12/26 04:41:55;;;;;;;9.15;5.700001;;;;;;;-2.47;90.49219;95798.99;;;;
2020/12/26 04:42:55;;;;;;;9.15;5.700001;;;;;;;-2.47;90.49219;95798.99;;;;
2020/12/26 04:43:58;;;;;;;9.15;5.700001;;;;;;;-2.47;90.49219;95798.99;;;;
2020/12/26 04:45:01;;;;;;;10.5;6.25;;;;;;;-2.53;90.47852;95800.45;;;;
2020/12/26 04:46:02;;;;;;;10.5;6.25;;;;;;;-2.53;90.47852;95800.45;;;;
2020/12/26 04:47:12;;;;;;;10.5;6.25;;;;;;;-2.53;90.47852;95800.45;;;;
2020/12/26 04:48:13;;;;;;;10.5;6.25;;;;;;;-2.53;90.47852;95800.45;;;;
2020/12/26 04:49:15;;;;;;;10.5;6.25;;;;;;;-2.53;90.47852;95800.45;;;;
2020/12/26 04:50:18;;;;;;;10.5;6.25;;;;;;;-2.53;90.47852;95800.45;;;;
2020/12/26 04:51:26;;;;;;;10.5;6.25;;;;;;;-2.53;90.47852;95800.45;;;;
2020/12/26 04:52:27;;;;;;;10.5;6.25;;;;;;;-2.53;90.47852;95800.45;;;;
2020/12/26 04:53:29;;;;;;;10.5;6.25;;;;;;;-2.53;90.47852;95800.45;;;;
2020/12/26 04:54:32;;;;;;;10.5;6.25;;;;;;;-2.53;90.47852;95800.45;;;;
2020/12/26 04:55:33;;;;;;;11.15;6.249999;;;;;;;-2.69;90.59082;95813.79;;;;
2020/12/26 04:56:35;;;;;;;11.15;6.249999;;;;;;;-2.69;90.59082;95813.79;;;;
2020/12/26 04:57:41;;;;;;;11.15;6.249999;;;;;;;-2.69;90.59082;95813.79;;;;
2020/12/26 04:58:43;;;;;;;11.15;6.249999;;;;;;;-2.69;90.59082;95813.79;;;;
2020/12/26 04:59:47;;;;;;;11.15;6.249999;;;;;;;-2.69;90.59082;95813.79;;;;
2020/12/26 05:00:48;;;;;;;11.15;6.249999;;;;;;;-2.69;90.59082;95813.79;;;;
2020/12/26 05:01:49;;;;;;;11.15;6.249999;;;;;;;-2.69;90.59082;95813.79;;;;
2020/12/26 05:02:50;;;;;;;11.15;6.249999;;;;;;;-2.69;90.59082;95813.79;;;;
2020/12/26 05:03:54;;;;;;;11.15;6.249999;;;;;;;-2.69;90.59082;95813.79;;;;
2020/12/26 05:05:00;;;;;;;11.15;6.249999;;;;;;;-2.69;90.59082;95813.79;;;;
2020/12/26 05:06:02;;;;;;;12.65;6.900001;;;;;;;-2.79;90.94043;95830.22;;;;
2020/12/26 05:07:05;;;;;;;12.65;6.900001;;;;;;;-2.79;90.94043;95830.22;;;;
2020/12/26 05:08:05;;;;;;;12.65;6.900001;;;;;;;-2.79;90.94043;95830.22;;;;
2020/12/26 05:09:07;;;;;;;12.65;6.900001;;;;;;;-2.79;90.94043;95830.22;;;;
2020/12/26 05:10:07;;;;;;;12.65;6.900001;;;;;;;-2.79;90.94043;95830.22;;;;
2020/12/26 05:11:08;;;;;;;12.65;6.900001;;;;;;;-2.79;90.94043;95830.22;;;;
2020/12/26 05:12:08;;;;;;;12.65;6.900001;;;;;;;-2.79;90.94043;95830.22;;;;
2020/12/26 05:13:09;;;;;;;12.65;6.900001;;;;;;;-2.79;90.94043;95830.22;;;;
2020/12/26 05:14:10;;;;;;;12.65;6.900001;;;;;;;-2.79;90.94043;95830.22;;;;
2020/12/26 05:15:16;;;;;;;12.65;6.900001;;;;;;;-2.79;90.94043;95830.22;;;;
2020/12/26 05:16:16;;;;;;;12.3;7.049999;;;;;;;-2.87;91.00488;95860.88;;;;
2020/12/26 05:17:17;;;;;;;12.3;7.049999;;;;;;;-2.87;91.00488;95860.88;;;;
2020/12/26 05:18:18;;;;;;;12.3;7.049999;;;;;;;-2.87;91.00488;95860.88;;;;
2020/12/26 05:19:19;;;;;;;12.3;7.049999;;;;;;;-2.87;91.00488;95860.88;;;;
2020/12/26 05:20:21;;;;;;;12.3;7.049999;;;;;;;-2.87;91.00488;95860.88;;;;
2020/12/26 05:21:22;;;;;;;12.3;7.049999;;;;;;;-2.87;91.00488;95860.88;;;;
2020/12/26 05:22:23;;;;;;;12.3;7.049999;;;;;;;-2.87;91.00488;95860.88;;;;
2020/12/26 05:23:24;;;;;;;12.3;7.049999;;;;;;;-2.87;91.00488;95860.88;;;;
2020/12/26 05:24:24;;;;;;;12.3;7.049999;;;;;;;-2.87;91.00488;95860.88;;;;
2020/12/26 05:25:25;;;;;;;12.3;7.049999;;;;;;;-2.87;91.00488;95860.88;;;;
2020/12/26 05:26:25;;;;;;;12.3;7.049999;;;;;;;-2.87;91.00488;95860.88;;;;
2020/12/26 05:27:29;;;;;;;13.35;8.799998;;;;;;;-2.89;91.39258;95854.47;;;;
2020/12/26 05:28:32;;;;;;;13.35;8.799998;;;;;;;-2.89;91.39258;95854.47;;;;
2020/12/26 05:29:36;;;;;;;13.35;8.799998;;;;;;;-2.89;91.39258;95854.47;;;;
2020/12/26 05:30:41;;;;;;;13.35;8.799998;;;;;;;-2.89;91.39258;95854.47;;;;
2020/12/26 05:31:43;;;;;;;13.35;8.799998;;;;;;;-2.89;91.39258;95854.47;;;;
2020/12/26 05:32:46;;;;;;;13.35;8.799998;;;;;;;-2.89;91.39258;95854.47;;;;
2020/12/26 05:33:49;;;;;;;13.35;8.799998;;;;;;;-2.89;91.39258;95854.47;;;;
2020/12/26 05:34:50;;;;;;;13.35;8.799998;;;;;;;-2.89;91.39258;95854.47;;;;
2020/12/26 05:35:51;;;;;;;13.35;8.799998;;;;;;;-2.89;91.39258;95854.47;;;;
2020/12/26 05:36:52;;;;;;;13.35;8.799998;;;;;;;-2.89;91.39258;95854.47;;;;
2020/12/26 05:37:52;;;;;;;11.35;6.650001;;;;;;;-2.95;91.65625;95868.27;;;;
2020/12/26 05:38:57;;;;;;;11.35;6.650001;;;;;;;-2.95;91.65625;95868.27;;;;
2020/12/26 05:39:57;;;;;;;11.35;6.650001;;;;;;;-2.95;91.65625;95868.27;;;;
2020/12/26 05:40:59;;;;;;;11.35;6.650001;;;;;;;-2.95;91.65625;95868.27;;;;
2020/12/26 05:42:01;;;;;;;11.35;6.650001;;;;;;;-2.95;91.65625;95868.27;;;;